createdAt,value
2023-03-15T00:02:31.533Z,67.99
2023-03-15T00:05:34.814Z,66.84
2023-03-15T00:08:37.467Z,67.18
2023-03-15T00:11:40.554Z,67.11
2023-03-15T00:14:43.162Z,66.20
2023-03-15T00:17:45.619Z,66.44
2023-03-15T00:20:48.998Z,65.78
2023-03-15T00:23:53.037Z,66.39
2023-03-15T00:26:55.573Z,65.40
2023-03-15T00:29:58.258Z,65.41
2023-03-15T00:33:00.889Z,65.58
2023-03-15T00:36:06.629Z,64.89
2023-03-15T00:39:09.583Z,65.07
2023-03-15T00:42:16.627Z,66.07
2023-03-15T00:45:21.289Z,64.97
2023-03-15T00:48:24.104Z,65.38
2023-03-15T00:51:26.792Z,65.20
2023-03-15T00:54:29.684Z,64.67
2023-03-15T00:57:35.051Z,65.09
2023-03-15T01:00:38.345Z,64.58
2023-03-15T01:03:46.093Z,65.39
2023-03-15T01:06:48.679Z,64.78
2023-03-15T01:09:51.888Z,64.55
2023-03-15T01:12:54.324Z,64.54
2023-03-15T01:15:58.838Z,64.69
2023-03-15T01:19:01.274Z,64.94
2023-03-15T01:22:03.745Z,64.61
2023-03-15T01:25:06.643Z,64.32
2023-03-15T01:28:09.590Z,64.12
2023-03-15T01:31:23.987Z,63.99
2023-03-15T01:34:26.580Z,63.49
2023-03-15T01:37:29.209Z,63.42
2023-03-15T01:40:32.267Z,63.71
2023-03-15T01:43:35.600Z,63.02
2023-03-15T01:46:38.145Z,63.62
2023-03-15T01:50:08.698Z,64.10
2023-03-15T01:53:12.618Z,64.14
2023-03-15T01:56:15.841Z,63.29
2023-03-15T01:59:24.093Z,63.53
2023-03-15T02:02:28.041Z,63.44
2023-03-15T02:05:36.027Z,63.97
2023-03-15T02:08:44.920Z,63.31
2023-03-15T02:11:48.058Z,63.36
2023-03-15T02:14:54.267Z,63.53
2023-03-15T02:17:58.968Z,63.39
2023-03-15T02:21:22.713Z,63.62
2023-03-15T02:24:44.455Z,63.20
2023-03-15T02:27:47.804Z,63.92
2023-03-15T02:30:52.406Z,63.28
2023-03-15T02:33:57.638Z,63.96
2023-03-15T02:37:00.127Z,63.98
2023-03-15T02:40:21.719Z,64.18
2023-03-15T02:43:29.194Z,64.07
2023-03-15T02:46:31.702Z,63.82
2023-03-15T02:49:40.670Z,64.40
2023-03-15T02:52:44.883Z,64.22
2023-03-15T02:55:47.351Z,64.04
2023-03-15T02:58:52.254Z,64.72
2023-03-15T03:01:54.836Z,64.58
2023-03-15T03:04:57.344Z,63.74
2023-03-15T03:07:59.973Z,64.34
2023-03-15T03:11:02.665Z,63.30
2023-03-15T03:14:06.128Z,63.40
2023-03-15T03:17:08.867Z,63.79
2023-03-15T03:20:14.196Z,63.13
2023-03-15T03:23:21.264Z,63.30
2023-03-15T03:26:27.878Z,63.45
2023-03-15T03:29:31.150Z,62.91
2023-03-15T03:32:37.569Z,63.05
2023-03-15T03:35:40.404Z,61.29
2023-03-15T03:38:45.544Z,60.61
2023-03-15T03:41:48.360Z,61.87
2023-03-15T03:44:51.377Z,59.91
2023-03-15T03:47:55.155Z,60.28
2023-03-15T03:50:58.839Z,61.02
2023-03-15T03:54:02.225Z,59.55
2023-03-15T03:57:05.207Z,58.80
2023-03-15T04:00:15.056Z,58.31
2023-03-15T04:03:18.759Z,58.80
2023-03-15T04:06:25.203Z,58.35
2023-03-15T04:09:28.559Z,58.66
2023-03-15T04:12:31.285Z,58.79
2023-03-15T04:15:34.739Z,58.02
2023-03-15T04:18:37.216Z,59.19
2023-03-15T04:21:39.956Z,58.92
2023-03-15T04:25:03.183Z,58.49
2023-03-15T04:28:27.969Z,57.68
2023-03-15T04:31:38.862Z,58.02
2023-03-15T04:34:51.757Z,57.75
2023-03-15T04:38:12.321Z,58.31
2023-03-15T04:41:36.968Z,59.52
2023-03-15T04:44:54.921Z,59.91
2023-03-15T04:48:17.806Z,60.53
2023-03-15T04:51:44.179Z,60.68
2023-03-15T04:55:10.021Z,60.77
2023-03-15T04:58:41.749Z,60.63
2023-03-15T05:02:02.746Z,61.16
2023-03-15T05:05:15.470Z,60.97
2023-03-15T05:08:41.120Z,61.73
2023-03-15T05:12:02.508Z,61.91
2023-03-15T05:15:27.031Z,62.24
2023-03-15T05:19:08.626Z,62.81
2023-03-15T05:22:19.975Z,63.26
2023-03-15T05:25:43.752Z,62.63
2023-03-15T05:29:00.437Z,62.91
2023-03-15T05:32:26.691Z,63.03
2023-03-15T05:35:49.258Z,63.41
2023-03-15T05:39:16.666Z,64.17
2023-03-15T05:42:39.645Z,63.48
2023-03-15T05:46:01.554Z,63.73
2023-03-15T05:49:22.952Z,64.04
2023-03-15T05:52:42.709Z,64.63
2023-03-15T05:55:56.399Z,64.40
2023-03-15T05:59:05.296Z,63.98
2023-03-15T06:02:25.216Z,63.73
2023-03-15T06:05:43.547Z,63.96
2023-03-15T06:08:51.298Z,63.94
2023-03-15T06:11:54.216Z,63.41
2023-03-15T06:14:57.368Z,63.00
2023-03-15T06:17:59.893Z,62.67
2023-03-15T06:21:02.826Z,62.97
2023-03-15T06:24:06.600Z,62.74
2023-03-15T06:27:10.567Z,63.26
2023-03-15T06:30:15.957Z,62.91
2023-03-15T06:33:21.597Z,63.65
2023-03-15T06:36:25.018Z,63.39
2023-03-15T06:39:27.555Z,63.38
2023-03-15T06:42:30.032Z,63.13
2023-03-15T06:45:33.728Z,63.48
2023-03-15T06:48:36.992Z,63.34
2023-03-15T06:51:40.219Z,63.08
2023-03-15T06:54:45.165Z,62.38
2023-03-15T06:57:47.579Z,61.63
2023-03-15T07:00:52.542Z,61.54
2023-03-15T07:03:55.059Z,61.69
2023-03-15T07:06:57.670Z,60.81
2023-03-15T07:10:00.835Z,60.77
2023-03-15T07:13:05.173Z,60.83
2023-03-15T07:16:07.706Z,59.39
2023-03-15T07:19:10.376Z,59.93
2023-03-15T07:22:12.803Z,59.88
2023-03-15T07:25:15.485Z,59.27
2023-03-15T07:28:18.030Z,59.20
2023-03-15T07:31:20.525Z,58.92
2023-03-15T07:34:22.996Z,58.88
2023-03-15T07:37:25.438Z,59.36
2023-03-15T07:40:28.857Z,58.29
2023-03-15T07:43:31.691Z,58.66
2023-03-15T07:46:55.030Z,58.82
2023-03-15T07:49:57.935Z,57.40
2023-03-15T07:53:01.146Z,57.05
2023-03-15T07:56:04.290Z,56.32
2023-03-15T07:59:06.967Z,56.96
2023-03-15T08:02:14.539Z,55.75
2023-03-15T08:05:20.076Z,55.33
2023-03-15T08:08:22.700Z,54.44
2023-03-15T08:11:25.250Z,55.06
2023-03-15T08:14:28.409Z,54.87
2023-03-15T08:17:30.832Z,54.19
2023-03-15T08:20:36.753Z,53.45
2023-03-15T08:23:39.389Z,54.69
2023-03-15T08:26:43.323Z,54.80
2023-03-15T08:29:45.901Z,52.88
2023-03-15T08:32:50.162Z,53.70
2023-03-15T08:35:56.424Z,53.03
2023-03-15T08:38:58.940Z,52.59
2023-03-15T08:42:01.629Z,51.81
2023-03-15T08:45:07.119Z,52.46
2023-03-15T08:48:09.746Z,51.54
2023-03-15T08:51:13.873Z,52.09
2023-03-15T08:54:16.492Z,52.32
2023-03-15T08:57:18.930Z,52.92
2023-03-15T09:00:23.262Z,53.19
2023-03-15T09:03:25.791Z,51.56
2023-03-15T09:06:31.525Z,52.13
2023-03-15T09:09:34.560Z,53.02
2023-03-15T09:12:37.074Z,53.16
2023-03-15T09:15:39.481Z,52.35
2023-03-15T09:18:44.090Z,52.39
2023-03-15T09:21:47.221Z,52.55
2023-03-15T09:24:50.487Z,53.70
2023-03-15T09:27:54.358Z,51.86
2023-03-15T09:30:59.535Z,52.04
2023-03-15T09:34:03.404Z,52.01
2023-03-15T09:37:06.049Z,51.26
2023-03-15T09:40:15.580Z,52.19
2023-03-15T09:43:36.990Z,51.80
2023-03-15T09:46:45.042Z,51.18
2023-03-15T09:50:07.824Z,50.72
2023-03-15T09:53:27.592Z,50.56
2023-03-15T09:56:38.388Z,50.72
2023-03-15T09:59:46.412Z,50.15
2023-03-15T10:03:01.696Z,49.73
2023-03-15T10:06:30.016Z,49.35
2023-03-15T10:09:33.806Z,49.41
2023-03-15T10:12:42.133Z,48.53
2023-03-15T10:15:57.634Z,46.91
2023-03-15T10:19:25.653Z,47.53
2023-03-15T10:22:50.189Z,47.46
2023-03-15T10:25:54.399Z,47.56
2023-03-15T10:28:57.374Z,47.79
2023-03-15T10:32:00.529Z,46.62
2023-03-15T10:35:13.573Z,47.19
2023-03-15T10:38:21.758Z,47.11
2023-03-15T10:41:37.476Z,46.50
2023-03-15T10:44:40.293Z,46.67
2023-03-15T10:47:50.404Z,46.06
2023-03-15T10:51:01.415Z,45.88
2023-03-15T10:54:22.211Z,45.92
2023-03-15T10:57:28.329Z,44.97
2023-03-15T11:00:37.960Z,44.71
2023-03-15T11:03:41.784Z,45.02
2023-03-15T11:06:46.284Z,44.47
2023-03-15T11:09:54.598Z,43.28
2023-03-15T11:13:13.726Z,43.36
2023-03-15T11:16:16.153Z,43.42
2023-03-15T11:19:25.671Z,43.17
2023-03-15T11:22:28.137Z,42.39
2023-03-15T11:25:31.840Z,41.58
2023-03-15T11:28:37.733Z,41.56
2023-03-15T11:31:40.917Z,40.92
2023-03-15T11:35:06.650Z,40.46
2023-03-15T11:38:17.338Z,40.22
2023-03-15T11:41:35.738Z,39.02
2023-03-15T11:44:46.944Z,37.92
2023-03-15T11:48:01.754Z,38.21
2023-03-15T11:51:05.871Z,38.57
2023-03-15T11:54:11.362Z,39.20
2023-03-15T11:57:29.033Z,37.92
2023-03-15T12:00:36.647Z,38.29
2023-03-15T12:03:44.362Z,38.38
2023-03-15T12:06:46.860Z,38.24
2023-03-15T12:09:52.721Z,38.42
2023-03-15T12:13:07.738Z,38.58
2023-03-15T12:16:12.089Z,38.30
2023-03-15T12:19:17.947Z,37.36
2023-03-15T12:22:20.797Z,38.19
2023-03-15T12:25:45.523Z,38.58
2023-03-15T12:28:58.823Z,37.97
2023-03-15T12:32:04.471Z,37.70
2023-03-15T12:35:17.534Z,36.60
2023-03-15T12:38:23.766Z,36.29
2023-03-15T12:41:36.698Z,36.53
2023-03-15T12:44:41.959Z,35.65
2023-03-15T12:47:44.338Z,35.01
2023-03-15T12:50:48.167Z,35.45
2023-03-15T12:53:54.640Z,35.01
2023-03-15T12:57:02.699Z,34.84
2023-03-15T13:00:15.764Z,35.36
2023-03-15T13:03:22.187Z,33.90
2023-03-15T13:06:49.207Z,33.64
2023-03-15T13:10:24.063Z,33.12
2023-03-15T13:13:38.134Z,32.61
2023-03-15T13:16:51.088Z,33.42
2023-03-15T13:20:11.218Z,33.42
2023-03-15T13:23:26.262Z,33.27
2023-03-15T13:26:35.684Z,34.19
2023-03-15T13:29:38.280Z,34.19
2023-03-15T13:32:44.446Z,33.63
2023-03-15T13:35:54.154Z,33.67
2023-03-15T13:38:57.703Z,34.79
2023-03-15T13:42:17.905Z,35.11
2023-03-15T13:45:23.239Z,34.38
2023-03-15T13:48:34.749Z,34.89
2023-03-15T13:51:39.249Z,34.33
2023-03-15T13:54:44.408Z,34.47
2023-03-15T13:57:48.325Z,35.37
2023-03-15T14:01:04.487Z,34.23
2023-03-15T14:04:12.976Z,34.71
2023-03-15T14:07:35.310Z,34.76
2023-03-15T14:10:40.008Z,34.48
2023-03-15T14:13:52.578Z,33.82
2023-03-15T14:17:05.239Z,34.09
2023-03-15T14:20:15.751Z,34.18
2023-03-15T14:23:22.749Z,34.11
2023-03-15T14:26:29.913Z,33.37
2023-03-15T14:29:37.506Z,34.05
2023-03-15T14:32:52.828Z,34.06
2023-03-15T14:36:00.037Z,34.36
2023-03-15T14:39:02.805Z,34.58
2023-03-15T14:42:07.874Z,34.40
2023-03-15T14:45:10.660Z,34.31
2023-03-15T14:48:28.721Z,35.66
2023-03-15T14:51:33.182Z,35.50
2023-03-15T14:54:35.682Z,35.39
2023-03-15T14:57:38.516Z,35.20
2023-03-15T15:01:00.086Z,35.27
2023-03-15T15:04:04.086Z,34.88
2023-03-15T15:07:06.547Z,35.88
2023-03-15T15:10:09.596Z,35.16
2023-03-15T15:13:24.164Z,34.87
2023-03-15T15:16:27.121Z,34.71
2023-03-15T15:19:29.890Z,35.12
2023-03-15T15:22:32.564Z,35.20
2023-03-15T15:25:35.680Z,34.58
2023-03-15T15:28:38.183Z,34.53
2023-03-15T15:31:41.703Z,34.14
2023-03-15T15:34:44.670Z,34.50
2023-03-15T15:37:50.082Z,34.71
2023-03-15T15:40:53.647Z,34.32
2023-03-15T15:43:57.017Z,34.40
2023-03-15T15:47:01.382Z,33.99
2023-03-15T15:50:04.263Z,34.47
2023-03-15T15:53:07.624Z,33.98
2023-03-15T15:56:14.452Z,33.72
2023-03-15T15:59:17.731Z,33.58
2023-03-15T16:02:23.102Z,33.43
2023-03-15T16:05:28.830Z,33.67
2023-03-15T16:08:37.778Z,33.36
2023-03-15T16:11:40.986Z,33.58
2023-03-15T16:14:44.041Z,33.22
2023-03-15T16:17:47.014Z,33.71
2023-03-15T16:20:51.616Z,34.20
2023-03-15T16:24:02.054Z,34.14
2023-03-15T16:27:07.224Z,33.74
2023-03-15T16:30:23.352Z,33.78
2023-03-15T16:33:27.177Z,34.11
2023-03-15T16:36:34.459Z,34.22
2023-03-15T16:39:38.191Z,34.07
2023-03-15T16:42:41.943Z,34.04
2023-03-15T16:45:45.259Z,33.72
2023-03-15T16:48:47.836Z,34.09
2023-03-15T16:51:53.403Z,34.16
2023-03-15T16:54:56.327Z,34.32
2023-03-15T16:58:02.775Z,34.59
2023-03-15T17:01:08.325Z,35.29
2023-03-15T17:04:11.145Z,35.26
2023-03-15T17:07:14.862Z,35.39
2023-03-15T17:10:23.325Z,35.77
2023-03-15T17:13:29.886Z,36.36
2023-03-15T17:16:32.847Z,36.75
2023-03-15T17:19:35.327Z,36.58
2023-03-15T17:22:38.950Z,37.49
2023-03-15T17:25:41.525Z,37.32
2023-03-15T17:28:46.013Z,37.33
2023-03-15T17:31:49.070Z,37.39
2023-03-15T17:34:52.380Z,37.61
2023-03-15T17:37:55.745Z,38.27
2023-03-15T17:41:00.010Z,38.22
2023-03-15T17:44:03.811Z,38.08
2023-03-15T17:47:12.914Z,38.09
2023-03-15T17:50:16.254Z,39.03
2023-03-15T17:53:21.298Z,38.97
2023-03-15T17:56:24.416Z,38.92
2023-03-15T17:59:27.287Z,39.33
2023-03-15T18:02:32.240Z,38.75
2023-03-15T18:05:36.564Z,38.93
2023-03-15T18:08:39.334Z,39.29
2023-03-15T18:11:43.622Z,39.24
2023-03-15T18:14:47.486Z,39.14
2023-03-15T18:17:50.930Z,38.84
2023-03-15T18:20:54.045Z,38.62
2023-03-15T18:23:58.411Z,39.26
2023-03-15T18:27:02.044Z,38.67
2023-03-15T18:30:06.773Z,38.61
2023-03-15T18:33:11.150Z,38.46
2023-03-15T18:36:13.738Z,38.60
2023-03-15T18:39:17.253Z,38.83
2023-03-15T18:42:20.112Z,38.02
2023-03-15T18:45:26.945Z,38.06
2023-03-15T18:48:40.136Z,38.09
2023-03-15T18:51:43.837Z,37.86
2023-03-15T18:54:46.765Z,38.35
2023-03-15T18:57:52.096Z,38.50
2023-03-15T19:00:55.709Z,38.65
2023-03-15T19:03:58.352Z,39.21
2023-03-15T19:07:01.195Z,39.44
2023-03-15T19:10:06.555Z,39.26
2023-03-15T19:13:09.654Z,39.85
2023-03-15T19:16:12.910Z,40.28
2023-03-15T19:19:35.612Z,40.18
2023-03-15T19:22:39.637Z,39.97
2023-03-15T19:25:42.104Z,39.86
2023-03-15T19:28:45.167Z,39.42
2023-03-15T19:31:47.874Z,39.99
2023-03-15T19:34:50.933Z,39.86
2023-03-15T19:37:53.792Z,39.93
2023-03-15T19:40:58.640Z,40.90
2023-03-15T19:44:01.532Z,40.87
2023-03-15T19:47:05.303Z,40.97
2023-03-15T19:50:11.052Z,41.31
2023-03-15T19:53:13.877Z,42.61
2023-03-15T19:56:18.433Z,42.04
2023-03-15T19:59:21.434Z,41.92
2023-03-15T20:02:24.533Z,41.11
2023-03-15T20:05:27.923Z,41.57
2023-03-15T20:08:30.733Z,42.00
2023-03-15T20:11:34.750Z,42.34
2023-03-15T20:14:38.429Z,41.67
2023-03-15T20:17:41.611Z,40.97
2023-03-15T20:20:44.461Z,41.26
2023-03-15T20:23:47.945Z,39.93
2023-03-15T20:26:51.936Z,39.40
2023-03-15T20:29:56.600Z,39.51
2023-03-15T20:33:00.330Z,39.00
2023-03-15T20:36:04.101Z,38.69
2023-03-15T20:39:06.861Z,38.74
2023-03-15T20:42:09.719Z,38.46
2023-03-15T20:45:13.571Z,37.95
2023-03-15T20:48:16.331Z,37.63
2023-03-15T20:51:19.716Z,37.88
2023-03-15T20:54:22.482Z,38.07
2023-03-15T20:57:25.310Z,38.81
2023-03-15T21:00:29.330Z,38.11
2023-03-15T21:03:34.140Z,37.84
2023-03-15T21:06:37.027Z,37.77
2023-03-15T21:09:40.706Z,38.55
2023-03-15T21:12:46.535Z,39.33
2023-03-15T21:15:53.209Z,39.35
2023-03-15T21:18:56.390Z,40.00
2023-03-15T21:22:01.113Z,39.88
2023-03-15T21:25:04.186Z,39.66
2023-03-15T21:28:07.410Z,39.68
2023-03-15T21:31:09.998Z,39.78
2023-03-15T21:34:12.683Z,40.46
2023-03-15T21:37:15.373Z,39.93
2023-03-15T21:40:18.176Z,41.04
2023-03-15T21:43:20.967Z,40.38
2023-03-15T21:46:23.916Z,41.69
2023-03-15T21:49:26.375Z,41.60
2023-03-15T21:52:28.937Z,41.86
2023-03-15T21:55:33.666Z,41.97
2023-03-15T21:58:36.283Z,42.41
2023-03-15T22:01:39.043Z,42.28
2023-03-15T22:04:44.911Z,41.92
2023-03-15T22:07:47.770Z,42.58
2023-03-15T22:10:54.767Z,42.06
2023-03-15T22:13:58.201Z,42.63
2023-03-15T22:17:04.654Z,42.84
2023-03-15T22:20:17.087Z,42.80
2023-03-15T22:23:19.703Z,43.27
2023-03-15T22:26:22.537Z,44.16
2023-03-15T22:29:25.000Z,43.60
2023-03-15T22:32:27.620Z,44.01
2023-03-15T22:35:30.258Z,44.27
2023-03-15T22:38:37.956Z,44.14
2023-03-15T22:41:42.010Z,43.94
2023-03-15T22:44:45.783Z,44.44
2023-03-15T22:47:49.465Z,45.07
2023-03-15T22:50:58.590Z,44.64
2023-03-15T22:54:01.212Z,45.26
2023-03-15T22:57:03.762Z,44.74
2023-03-15T23:00:14.030Z,44.97
2023-03-15T23:03:16.832Z,45.01
2023-03-15T23:06:20.225Z,44.39
2023-03-15T23:09:22.892Z,44.47
2023-03-15T23:12:35.800Z,44.28
2023-03-15T23:15:39.196Z,45.07
2023-03-15T23:18:42.442Z,45.13
2023-03-15T23:21:45.350Z,45.04
2023-03-15T23:24:47.794Z,45.34
2023-03-15T23:27:50.681Z,44.92
2023-03-15T23:30:53.300Z,44.87
2023-03-15T23:33:55.824Z,45.43
2023-03-15T23:36:58.197Z,45.52
2023-03-15T23:40:01.848Z,46.12
2023-03-15T23:43:05.894Z,45.99
2023-03-15T23:46:08.610Z,46.40
2023-03-15T23:49:12.670Z,45.43
2023-03-15T23:52:15.676Z,45.23
2023-03-15T23:55:18.444Z,45.46
2023-03-15T23:58:21.272Z,46.28
